Time;durP1;ratioP1;P1;durP2;ratioP2;P2;SDS_P1;SDS_P2;PMS_P1;PMS_P2;Temp;Humidity;BMP_temperature;BMP_pressure;BME280_temperature;BME280_humidity;BME280_pressure;Samples;Min_cycle;Max_cycle;Signal;HPM_P1;HPM_P2
2021/06/04 00:02:06;;;;;;;;;;;12.80;99.90;;;;;;4923994;29;19937;-95
2021/06/04 00:04:33;;;;;;;;;;;12.80;99.90;;;;;;4925767;29;19930;-95
2021/06/04 00:10:34;;;;;;;;;;;12.80;99.90;;;;;;4948048;29;19974;-94
2021/06/04 00:13:21;;;;;;;;;;;12.70;99.90;;;;;;4924585;29;19954;-95
2021/06/04 00:15:50;;;;;;;;;;;12.70;99.90;;;;;;4909879;29;20290;-94
2021/06/04 00:18:17;;;;;;;;;;;12.70;99.90;;;;;;4923913;29;20017;-93
2021/06/04 00:20:44;;;;;;;;;;;12.60;99.90;;;;;;4924420;29;19927;-94
2021/06/04 00:23:11;;;;;;;;;;;12.60;99.90;;;;;;4923950;29;19934;-93
2021/06/04 00:25:38;;;;;;;;;;;12.50;99.90;;;;;;4924380;29;19954;-95
2021/06/04 00:28:05;;;;;;;;;;;12.50;99.90;;;;;;4924327;29;19931;-95
2021/06/04 00:30:33;;;;;;;;;;;12.50;99.90;;;;;;4923880;29;19931;-94
2021/06/04 00:33:00;;;;;;;;;;;12.50;99.90;;;;;;4924048;29;19927;-93
2021/06/04 00:35:27;;;;;;;;;;;12.40;99.90;;;;;;4924149;29;19930;-93
2021/06/04 00:37:54;;;;;;;;;;;12.40;99.90;;;;;;4923885;29;19934;-94
2021/06/04 00:40:24;;;;;;;;;;;12.30;99.90;;;;;;4923691;29;20386;-93
2021/06/04 00:42:51;;;;;;;;;;;12.30;99.90;;;;;;4923994;29;19930;-94
2021/06/04 00:45:21;;;;;;;;;;;12.30;99.90;;;;;;4924449;29;20386;-95
2021/06/04 00:47:48;;;;;;;;;;;12.30;99.90;;;;;;4924555;29;19927;-94
2021/06/04 00:50:17;;;;;;;;;;;12.20;99.90;;;;;;4944981;29;19911;-95
2021/06/04 00:52:45;;;;;;;;;;;12.20;99.90;;;;;;4945674;29;19915;-95
2021/06/04 00:55:16;;;;;;;;;;;12.20;99.90;;;;;;4946415;29;19911;-95
2021/06/04 00:57:43;;;;;;;;;;;12.10;99.90;;;;;;4946436;29;19990;-94
2021/06/04 01:00:11;;;;;;;;;;;12.10;99.90;;;;;;4938615;29;19914;-94
2021/06/04 01:02:38;;;;;;;;;;;12.00;99.90;;;;;;4929576;29;19926;-94
2021/06/04 01:05:06;;;;;;;;;;;12.00;99.90;;;;;;4923875;29;19927;-94
2021/06/04 01:07:44;;;;;;;;;;;12.00;99.90;;;;;;4923164;29;19977;-95
2021/06/04 01:10:20;;;;;;;;;;;12.00;99.90;;;;;;4923885;29;20315;-94
2021/06/04 01:13:09;;;;;;;;;;;12.00;99.90;;;;;;4924174;29;19930;-95
2021/06/04 01:15:45;;;;;;;;;;;12.00;99.90;;;;;;4923044;29;19937;-95
2021/06/04 01:18:16;;;;;;;;;;;12.00;99.90;;;;;;4923938;29;19934;-93
2021/06/04 01:20:52;;;;;;;;;;;12.00;99.90;;;;;;4923994;29;19934;-95
2021/06/04 01:23:26;;;;;;;;;;;11.90;99.90;;;;;;4923180;29;19926;-96
2021/06/04 01:25:55;;;;;;;;;;;11.90;99.90;;;;;;4922973;29;19927;-95
2021/06/04 01:28:22;;;;;;;;;;;11.90;99.90;;;;;;4923300;29;19933;-94
2021/06/04 01:30:52;;;;;;;;;;;11.90;99.90;;;;;;4922992;29;19926;-96
2021/06/04 01:33:22;;;;;;;;;;;11.90;99.90;;;;;;4923216;29;20319;-93
2021/06/04 01:36:00;;;;;;;;;;;11.80;99.90;;;;;;4922837;29;19927;-95
2021/06/04 01:38:30;;;;;;;;;;;11.80;99.90;;;;;;4923230;29;20299;-95
2021/06/04 01:41:00;;;;;;;;;;;11.80;99.90;;;;;;4922179;29;19954;-93
2021/06/04 01:43:30;;;;;;;;;;;11.70;99.90;;;;;;4922897;29;19933;-94
2021/06/04 01:46:09;;;;;;;;;;;11.70;99.90;;;;;;4922722;29;19927;-94
2021/06/04 01:48:38;;;;;;;;;;;11.70;99.90;;;;;;4922832;29;19930;-95
2021/06/04 01:51:24;;;;;;;;;;;11.60;99.90;;;;;;4922384;29;19926;-94
2021/06/04 01:53:54;;;;;;;;;;;11.70;99.90;;;;;;4928639;29;19925;-94
2021/06/04 01:56:24;;;;;;;;;;;11.80;99.90;;;;;;4945147;29;19917;-94
2021/06/04 01:59:03;;;;;;;;;;;11.80;99.90;;;;;;4933336;29;19927;-94
2021/06/04 02:01:38;;;;;;;;;;;11.90;99.90;;;;;;4922502;29;19933;-94
2021/06/04 02:04:06;;;;;;;;;;;11.90;99.90;;;;;;4922831;29;19950;-95
2021/06/04 02:06:34;;;;;;;;;;;11.90;99.90;;;;;;4921366;29;21494;-95
2021/06/04 02:09:03;;;;;;;;;;;11.90;99.90;;;;;;4922243;29;19927;-95
2021/06/04 02:11:31;;;;;;;;;;;11.70;99.90;;;;;;4922563;29;19934;-95
2021/06/04 02:14:00;;;;;;;;;;;11.70;99.90;;;;;;4922511;29;19933;-94
2021/06/04 02:16:42;;;;;;;;;;;11.70;99.90;;;;;;4921912;29;19931;-94
2021/06/04 02:19:28;;;;;;;;;;;11.80;99.90;;;;;;4921972;29;19927;-95
2021/06/04 02:21:59;;;;;;;;;;;11.80;99.90;;;;;;4921961;29;19927;-94
2021/06/04 02:24:33;;;;;;;;;;;11.80;99.90;;;;;;4922225;29;19931;-94
2021/06/04 02:27:07;;;;;;;;;;;11.80;99.90;;;;;;4922246;29;19927;-95
2021/06/04 02:29:40;;;;;;;;;;;11.80;99.90;;;;;;4922846;29;20366;-93
2021/06/04 02:32:10;;;;;;;;;;;11.70;99.90;;;;;;4922108;29;19938;-95
2021/06/04 02:34:41;;;;;;;;;;;11.70;99.90;;;;;;4922147;29;20032;-94
2021/06/04 02:37:08;;;;;;;;;;;11.80;99.90;;;;;;4921914;29;19927;-94
2021/06/04 02:39:41;;;;;;;;;;;11.70;99.90;;;;;;4921711;29;19927;-96
2021/06/04 02:42:08;;;;;;;;;;;11.70;99.90;;;;;;4932631;29;19933;-95
2021/06/04 02:44:39;;;;;;;;;;;11.60;99.90;;;;;;4936677;29;19930;-95
2021/06/04 02:47:13;;;;;;;;;;;11.60;99.90;;;;;;4941055;29;19931;-94
2021/06/04 02:49:42;;;;;;;;;;;11.60;99.90;;;;;;4925930;29;19927;-95
2021/06/04 02:52:09;;;;;;;;;;;11.60;99.90;;;;;;4921680;29;19927;-96
2021/06/04 02:54:39;;;;;;;;;;;11.70;99.90;;;;;;4921746;29;19934;-96
2021/06/04 02:57:09;;;;;;;;;;;11.90;99.90;;;;;;4921803;29;19931;-92
2021/06/04 02:59:41;;;;;;;;;;;12.00;99.90;;;;;;4921995;29;19943;-96
2021/06/04 03:02:11;;;;;;;;;;;12.00;99.90;;;;;;4922034;29;19926;-95
2021/06/04 03:04:43;;;;;;;;;;;12.10;99.90;;;;;;4922059;29;19927;-95
2021/06/04 03:07:12;;;;;;;;;;;12.10;99.90;;;;;;4921732;29;19933;-95
2021/06/04 03:09:40;;;;;;;;;;;12.10;99.90;;;;;;4921604;29;19926;-96
2021/06/04 03:12:11;;;;;;;;;;;12.20;99.90;;;;;;4923555;28;19926;-95
2021/06/04 03:14:38;;;;;;;;;;;12.20;99.90;;;;;;4940195;29;19958;-95
2021/06/04 03:17:07;;;;;;;;;;;12.20;99.90;;;;;;4940718;29;19989;-95
2021/06/04 03:19:34;;;;;;;;;;;12.20;99.90;;;;;;4940477;29;19926;-96
2021/06/04 03:22:07;;;;;;;;;;;12.30;99.90;;;;;;4940458;29;19981;-95
2021/06/04 03:24:37;;;;;;;;;;;12.30;99.90;;;;;;4940695;29;19933;-95
2021/06/04 03:27:06;;;;;;;;;;;12.20;99.90;;;;;;4941125;29;20267;-95
2021/06/04 03:29:33;;;;;;;;;;;12.20;99.90;;;;;;4940440;29;19927;-96
2021/06/04 03:32:04;;;;;;;;;;;12.20;99.90;;;;;;4940414;29;19926;-96
2021/06/04 03:34:31;;;;;;;;;;;12.20;99.90;;;;;;4940568;29;19926;-95
2021/06/04 03:37:00;;;;;;;;;;;12.20;99.90;;;;;;4939911;29;19933;-95
2021/06/04 03:39:29;;;;;;;;;;;12.20;99.90;;;;;;4940514;29;19938;-96
2021/06/04 03:41:56;;;;;;;;;;;12.20;99.90;;;;;;4940161;29;19933;-96
2021/06/04 03:44:25;;;;;;;;;;;12.30;99.90;;;;;;4961231;28;19910;-95
2021/06/04 03:46:52;;;;;;;;;;;12.40;99.90;;;;;;4961996;28;19934;-95
2021/06/04 03:49:20;;;;;;;;;;;12.40;99.90;;;;;;4941859;29;19933;-96
2021/06/04 03:51:49;;;;;;;;;;;12.50;99.90;;;;;;4944026;29;19931;-93
2021/06/04 03:54:17;;;;;;;;;;;12.60;99.90;;;;;;4943650;29;19927;-96
2021/06/04 03:56:45;;;;;;;;;;;12.70;99.90;;;;;;4943716;29;19927;-94
2021/06/04 03:59:12;;;;;;;;;;;12.80;99.90;;;;;;4943640;29;19933;-94
2021/06/04 04:01:42;;;;;;;;;;;12.90;99.90;;;;;;4943345;29;19926;-95
2021/06/04 04:04:09;;;;;;;;;;;13.00;99.90;;;;;;4943550;29;19927;-95
2021/06/04 04:06:36;;;;;;;;;;;13.20;99.90;;;;;;4943582;29;19930;-93
2021/06/04 04:09:04;;;;;;;;;;;13.30;99.90;;;;;;4943034;29;19927;-93
2021/06/04 04:11:31;;;;;;;;;;;13.40;99.90;;;;;;4943700;29;19933;-93
2021/06/04 04:13:58;;;;;;;;;;;13.50;99.90;;;;;;4944007;29;20017;-93
2021/06/04 04:16:25;;;;;;;;;;;13.60;99.90;;;;;;4944457;29;20471;-93
2021/06/04 04:18:52;;;;;;;;;;;13.80;99.90;;;;;;4956724;29;19937;-94
2021/06/04 04:21:19;;;;;;;;;;;13.90;99.90;;;;;;4953969;29;19934;-95
2021/06/04 04:23:51;;;;;;;;;;;14.00;99.90;;;;;;4949616;29;19927;-94
2021/06/04 04:26:20;;;;;;;;;;;14.10;99.90;;;;;;4945784;29;20359;-94
2021/06/04 04:28:47;;;;;;;;;;;14.20;99.90;;;;;;4955635;29;19938;-94
2021/06/04 04:31:16;;;;;;;;;;;14.30;99.90;;;;;;4956128;29;19938;-93
2021/06/04 04:33:44;;;;;;;;;;;14.40;99.90;;;;;;4957951;29;19933;-95
2021/06/04 04:36:12;;;;;;;;;;;14.50;99.90;;;;;;4951399;29;19926;-93
2021/06/04 04:38:39;;;;;;;;;;;14.60;99.90;;;;;;4942775;29;19926;-94
2021/06/04 04:41:08;;;;;;;;;;;14.70;99.90;;;;;;4942681;29;19926;-95
2021/06/04 04:43:37;;;;;;;;;;;14.80;99.90;;;;;;4943007;29;19926;-95
2021/06/04 04:46:06;;;;;;;;;;;14.90;99.90;;;;;;4942836;29;19933;-95
2021/06/04 04:52:01;;;;;;;;;;;15.00;99.90;;;;;;4959581;29;19997;-95
2021/06/04 04:54:28;;;;;;;;;;;15.00;99.90;;;;;;4942603;29;20294;-95
2021/06/04 05:00:19;;;;;;;;;;;15.10;99.90;;;;;;4959756;28;19945;-94
2021/06/04 05:02:46;;;;;;;;;;;15.20;99.90;;;;;;4941423;29;19927;-93
2021/06/04 05:05:16;;;;;;;;;;;15.20;99.90;;;;;;4942534;29;19927;-93
2021/06/04 05:07:43;;;;;;;;;;;15.20;99.90;;;;;;4942098;29;19945;-94
2021/06/04 05:10:10;;;;;;;;;;;15.20;99.90;;;;;;4942129;29;19934;-95
2021/06/04 05:12:38;;;;;;;;;;;15.20;99.90;;;;;;4942056;29;19930;-95
2021/06/04 05:15:13;;;;;;;;;;;15.20;99.90;;;;;;4943067;29;19933;-96
2021/06/04 05:17:40;;;;;;;;;;;15.20;99.90;;;;;;4942738;29;20285;-95
2021/06/04 05:20:08;;;;;;;;;;;15.30;99.90;;;;;;4942539;29;19930;-96
2021/06/04 05:22:38;;;;;;;;;;;15.30;99.90;;;;;;4942608;29;19931;-96
2021/06/04 05:25:06;;;;;;;;;;;15.40;99.90;;;;;;4942052;29;19926;-94
2021/06/04 05:27:34;;;;;;;;;;;15.50;99.90;;;;;;4943610;29;19926;-96
2021/06/04 05:30:01;;;;;;;;;;;15.60;99.90;;;;;;4943503;29;19927;-96
2021/06/04 05:32:28;;;;;;;;;;;15.70;99.90;;;;;;4954188;28;19997;-95
2021/06/04 05:38:24;;;;;;;;;;;15.80;99.90;;;;;;4961279;29;19925;-96
2021/06/04 05:40:51;;;;;;;;;;;16.10;99.90;;;;;;4943831;29;19935;-96
2021/06/04 05:43:23;;;;;;;;;;;16.20;99.90;;;;;;4944436;29;19933;-95
2021/06/04 05:45:51;;;;;;;;;;;16.30;99.90;;;;;;4946680;29;20296;-96
2021/06/04 05:48:19;;;;;;;;;;;16.50;99.90;;;;;;4947179;29;19927;-96
2021/06/04 05:54:18;;;;;;;;;;;17.70;99.90;;;;;;4960370;29;19950;-96
2021/06/04 05:56:46;;;;;;;;;;;19.00;97.20;;;;;;4944735;29;19933;-95
2021/06/04 05:59:15;;;;;;;;;;;20.20;94.60;;;;;;4943464;29;19933;-95
2021/06/04 06:01:46;;;;;;;;;;;21.00;94.20;;;;;;4942229;29;19926;-94
2021/06/04 06:04:16;;;;;;;;;;;21.80;91.50;;;;;;4941549;29;19927;-94
2021/06/04 06:06:44;;;;;;;;;;;22.50;90.70;;;;;;4941682;29;19933;-93
2021/06/04 06:09:11;;;;;;;;;;;23.10;89.10;;;;;;4941058;29;19933;-94
2021/06/04 06:11:39;;;;;;;;;;;24.20;85.60;;;;;;4941476;29;19927;-95
2021/06/04 06:18:03;;;;;;;;;;;25.40;79.60;;;;;;4975572;29;19962;-95
2021/06/04 06:30:16;;;;;;;;;;;29.30;61.80;;;;;;4959462;29;20024;-94
2021/06/04 06:32:42;;;;;;;;;;;29.90;52.70;;;;;;4941777;29;20314;-94
2021/06/04 06:35:11;;;;;;;;;;;30.00;57.90;;;;;;4940955;29;19930;-95
2021/06/04 06:37:38;;;;;;;;;;;29.80;53.50;;;;;;4943036;29;19934;-93
2021/06/04 06:40:06;;;;;;;;;;;29.80;49.70;;;;;;4942826;29;19930;-94
2021/06/04 06:42:37;;;;;;;;;;;29.00;50.00;;;;;;4941347;29;19926;-95
2021/06/04 06:48:35;;;;;;;;;;;27.70;59.00;;;;;;4957797;29;20425;-94
2021/06/04 06:51:02;;;;;;;;;;;26.70;53.30;;;;;;4941054;29;19927;-94
2021/06/04 06:53:29;;;;;;;;;;;26.40;55.50;;;;;;4942711;29;20481;-96
2021/06/04 06:55:56;;;;;;;;;;;26.20;57.10;;;;;;4941458;29;20304;-94
2021/06/04 06:58:26;;;;;;;;;;;26.00;55.70;;;;;;4947750;29;20372;-96
2021/06/04 07:00:54;;;;;;;;;;;26.00;58.00;;;;;;4943203;29;19957;-94
2021/06/04 07:03:26;;;;;;;;;;;25.90;59.20;;;;;;4940683;29;19934;-94
2021/06/04 07:05:54;;;;;;;;;;;25.60;57.20;;;;;;4941573;29;20251;-94
2021/06/04 07:08:21;;;;;;;;;;;25.80;59.60;;;;;;4940314;29;20290;-94
2021/06/04 07:10:48;;;;;;;;;;;26.40;58.80;;;;;;4940783;29;19926;-94
2021/06/04 07:13:24;;;;;;;;;;;26.90;54.80;;;;;;4940780;29;20390;-95
2021/06/04 07:15:52;;;;;;;;;;;26.90;56.70;;;;;;4926476;29;19934;-94
2021/06/04 07:18:19;;;;;;;;;;;26.90;59.80;;;;;;4940806;29;19934;-93
2021/06/04 07:20:48;;;;;;;;;;;27.00;54.30;;;;;;4962539;28;19930;-94
2021/06/04 07:23:15;;;;;;;;;;;27.00;57.30;;;;;;4961618;28;20354;-93
2021/06/04 07:25:44;;;;;;;;;;;26.40;53.20;;;;;;4952010;29;19930;-94
2021/06/04 07:28:11;;;;;;;;;;;25.60;54.30;;;;;;4944979;29;20323;-94
2021/06/04 07:30:43;;;;;;;;;;;25.20;57.70;;;;;;4946418;29;19927;-95
2021/06/04 07:33:29;;;;;;;;;;;24.50;58.50;;;;;;4944520;29;19930;-94
2021/06/04 07:36:02;;;;;;;;;;;24.20;60.00;;;;;;4945233;29;19937;-94
2021/06/04 07:38:30;;;;;;;;;;;24.20;58.20;;;;;;4945594;29;19927;-95
2021/06/04 07:40:59;;;;;;;;;;;24.20;62.00;;;;;;4955965;28;19925;-93
2021/06/04 07:43:28;;;;;;;;;;;24.00;58.80;;;;;;4966618;28;19911;-92
2021/06/04 07:45:55;;;;;;;;;;;23.90;58.10;;;;;;4963245;28;19953;-95
2021/06/04 07:48:37;;;;;;;;;;;23.70;61.50;;;;;;4960241;28;19910;-95
2021/06/04 07:51:07;;;;;;;;;;;23.60;62.30;;;;;;4954469;29;19934;-93
2021/06/04 07:53:34;;;;;;;;;;;23.50;62.20;;;;;;4945624;29;19926;-94
2021/06/04 07:56:03;;;;;;;;;;;23.60;61.80;;;;;;4950187;29;19994;-95
2021/06/04 07:58:31;;;;;;;;;;;23.60;60.20;;;;;;4952526;29;19940;-95
2021/06/04 08:01:00;;;;;;;;;;;23.50;61.30;;;;;;4956541;28;19915;-96
2021/06/04 08:03:29;;;;;;;;;;;23.50;59.00;;;;;;4964282;28;20013;-94
2021/06/04 08:05:57;;;;;;;;;;;23.50;60.50;;;;;;4947235;29;20001;-96
2021/06/04 08:08:27;;;;;;;;;;;23.60;60.60;;;;;;4946735;29;20371;-93
2021/06/04 08:17:06;;;;;;;;;;;22.80;62.50;;;;;;4960552;29;19983;-93
2021/06/04 08:19:34;;;;;;;;;;;23.00;59.70;;;;;;4946608;29;19926;-93
2021/06/04 08:22:03;;;;;;;;;;;23.20;56.80;;;;;;4945422;29;19958;-94
2021/06/04 08:24:33;;;;;;;;;;;23.30;62.70;;;;;;4945283;29;19926;-93
2021/06/04 08:27:02;;;;;;;;;;;23.40;59.30;;;;;;4948561;29;19927;-93
2021/06/04 08:29:31;;;;;;;;;;;23.50;54.60;;;;;;4950441;29;19936;-92
2021/06/04 08:31:58;;;;;;;;;;;23.20;57.10;;;;;;4943736;29;19973;-93
2021/06/04 08:34:27;;;;;;;;;;;23.00;58.70;;;;;;4944603;29;19930;-93
2021/06/04 08:36:55;;;;;;;;;;;23.30;56.00;;;;;;4945918;29;19934;-92
2021/06/04 08:39:28;;;;;;;;;;;23.50;57.00;;;;;;4943191;29;20111;-94
2021/06/04 08:42:14;;;;;;;;;;;23.70;54.20;;;;;;4943235;29;19934;-93
2021/06/04 08:44:41;;;;;;;;;;;23.60;54.80;;;;;;4943825;29;19933;-91
2021/06/04 08:47:23;;;;;;;;;;;23.50;56.60;;;;;;4947008;29;19934;-94
2021/06/04 08:50:08;;;;;;;;;;;23.70;54.10;;;;;;4944243;29;19927;-94
2021/06/04 08:52:47;;;;;;;;;;;23.70;56.40;;;;;;4944892;29;19926;-93
2021/06/04 08:59:14;;;;;;;;;;;23.80;53.10;;;;;;4968995;28;19930;-93
2021/06/04 09:01:57;;;;;;;;;;;23.80;59.50;;;;;;4942629;29;19926;-92
2021/06/04 09:04:53;;;;;;;;;;;24.00;54.10;;;;;;4943017;29;19926;-93
2021/06/04 09:07:32;;;;;;;;;;;23.80;53.40;;;;;;4930571;29;19926;-94
2021/06/04 09:10:05;;;;;;;;;;;23.90;54.70;;;;;;4955625;28;19946;-94
2021/06/04 09:12:41;;;;;;;;;;;24.30;55.20;;;;;;4960884;29;19958;-94
2021/06/04 09:15:09;;;;;;;;;;;24.60;52.20;;;;;;4948443;29;19927;-94
2021/06/04 09:17:36;;;;;;;;;;;24.40;49.20;;;;;;4944770;29;19942;-93
2021/06/04 09:20:09;;;;;;;;;;;24.40;51.00;;;;;;4943970;29;20275;-93
2021/06/04 09:22:41;;;;;;;;;;;24.20;48.20;;;;;;4942996;29;19940;-91
2021/06/04 09:25:11;;;;;;;;;;;23.80;51.70;;;;;;4944822;28;20278;-94
2021/06/04 09:27:39;;;;;;;;;;;23.80;55.00;;;;;;4959925;28;19974;-90
2021/06/04 09:30:10;;;;;;;;;;;23.80;54.80;;;;;;4944069;29;20314;-91
2021/06/04 09:36:11;;;;;;;;;;;24.00;58.40;;;;;;4969827;28;19992;-93
2021/06/04 09:49:02;;;;;;;;;;;25.10;52.00;;;;;;4924220;29;20420;-96
2021/06/04 09:51:37;;;;;;;;;;;25.20;47.00;;;;;;4909496;29;19931;-95
2021/06/04 09:54:23;;;;;;;;;;;24.80;49.40;;;;;;4915327;29;20039;-94
2021/06/04 09:57:10;;;;;;;;;;;24.70;50.30;;;;;;4924950;29;20414;-96
2021/06/04 09:59:41;;;;;;;;;;;24.70;51.00;;;;;;4911537;29;19962;-94
2021/06/04 10:02:26;;;;;;;;;;;24.70;48.80;;;;;;4902727;29;19927;-93
2021/06/04 10:05:07;;;;;;;;;;;24.30;57.40;;;;;;4902786;29;19927;-94
2021/06/04 10:07:35;;;;;;;;;;;24.70;53.60;;;;;;4902395;29;19942;-96
2021/06/04 10:10:12;;;;;;;;;;;24.80;55.10;;;;;;4902707;29;19927;-94
2021/06/04 10:12:41;;;;;;;;;;;24.80;49.80;;;;;;4925659;29;19927;-94
2021/06/04 10:15:21;;;;;;;;;;;24.80;49.50;;;;;;4940875;29;19933;-94
2021/06/04 10:20:35;;;;;;;;;;;24.70;55.90;;;;;;4959373;29;19930;-93
2021/06/04 10:23:11;;;;;;;;;;;24.60;52.10;;;;;;4944585;29;19931;-94
2021/06/04 10:25:47;;;;;;;;;;;24.60;58.10;;;;;;4943474;29;19926;-93
2021/06/04 10:28:29;;;;;;;;;;;24.60;64.70;;;;;;4958324;29;19931;-94
2021/06/04 10:31:09;;;;;;;;;;;24.30;63.30;;;;;;4940523;29;20275;-91
2021/06/04 10:33:54;;;;;;;;;;;23.90;65.40;;;;;;4925050;29;19934;-93
2021/06/04 10:36:22;;;;;;;;;;;23.60;65.40;;;;;;4940457;29;19977;-93
2021/06/04 10:38:55;;;;;;;;;;;23.50;65.10;;;;;;4941274;29;19926;-92
2021/06/04 10:41:42;;;;;;;;;;;23.30;65.80;;;;;;4940568;29;20569;-94
2021/06/04 10:44:09;;;;;;;;;;;23.20;66.60;;;;;;4940473;29;19926;-93
2021/06/04 10:46:54;;;;;;;;;;;23.40;69.20;;;;;;4941126;29;19926;-93
2021/06/04 10:49:28;;;;;;;;;;;23.60;67.70;;;;;;4940553;29;20025;-94
2021/06/04 10:51:57;;;;;;;;;;;23.60;66.30;;;;;;4940268;29;19957;-94
2021/06/04 10:54:43;;;;;;;;;;;23.40;64.40;;;;;;4940612;29;20288;-94
2021/06/04 11:00:56;;;;;;;;;;;23.70;67.80;;;;;;4981577;28;19925;-91
2021/06/04 11:03:42;;;;;;;;;;;23.80;68.40;;;;;;4963435;28;19915;-92
2021/06/04 11:06:14;;;;;;;;;;;24.00;68.50;;;;;;4967680;28;19914;-95
2021/06/04 11:12:16;;;;;;;;;;;23.50;65.40;;;;;;4965161;28;19985;-94
2021/06/04 11:14:49;;;;;;;;;;;23.60;64.00;;;;;;4945245;29;19958;-94
2021/06/04 11:17:23;;;;;;;;;;;23.60;65.00;;;;;;4949871;29;19973;-95
2021/06/04 11:19:52;;;;;;;;;;;23.60;65.90;;;;;;4958180;29;19933;-95
2021/06/04 11:22:53;;;;;;;;;;;23.70;65.30;;;;;;4908011;29;19938;-95
2021/06/04 11:29:18;;;;;;;;;;;23.70;63.90;;;;;;4884641;29;19993;-95
2021/06/04 11:36:12;;;;;;;;;;;23.60;63.20;;;;;;4974649;29;19941;-96
2021/06/04 11:38:50;;;;;;;;;;;23.80;63.70;;;;;;4880955;29;19912;-95
2021/06/04 11:44:51;;;;;;;;;;;24.30;60.40;;;;;;4900767;29;19984;-95
2021/06/04 11:47:30;;;;;;;;;;;24.70;59.50;;;;;;4869815;29;19935;-96
2021/06/04 12:45:23;;;;;;;;;;;27.80;51.90;;;;;;990342;23;20140;-85
2021/06/04 12:47:57;;;;;;;;;;;28.50;47.40;;;;;;4943624;29;19911;-86
2021/06/04 12:57:02;;;;;;;;;;;29.10;44.10;;;;;;4905804;23;19928;31
2021/06/04 12:59:30;;;;;;;;;;;28.90;44.80;;;;;;4893819;29;19952;-94
2021/06/04 13:02:07;;;;;;;;;;;28.80;46.20;;;;;;4920994;29;19927;-88
2021/06/04 13:04:40;;;;;;;;;;;29.10;46.60;;;;;;4896868;29;19928;-94
2021/06/04 13:07:12;;;;;;;;;;;29.10;44.40;;;;;;4886550;29;19927;-95
2021/06/04 13:09:40;;;;;;;;;;;29.20;43.90;;;;;;4888954;29;19928;-94
2021/06/04 13:12:26;;;;;;;;;;;29.00;41.00;;;;;;4878213;29;19983;-95
2021/06/04 13:15:09;;;;;;;;;;;29.20;43.80;;;;;;4875119;29;19960;-94
2021/06/04 13:31:37;;;;;;;;;;;29.90;47.10;;;;;;4964867;29;20386;-95
2021/06/04 13:34:23;;;;;;;;;;;30.10;39.70;;;;;;4952965;23;19927;-96
2021/06/04 13:37:00;;;;;;;;;;;30.00;38.80;;;;;;4951319;29;19938;-95
2021/06/04 13:39:33;;;;;;;;;;;29.70;41.10;;;;;;4934118;29;19930;-96
2021/06/04 13:42:13;;;;;;;;;;;29.80;42.10;;;;;;4968416;29;19981;-95
2021/06/04 13:44:48;;;;;;;;;;;29.70;41.60;;;;;;4938224;29;19930;-95
2021/06/04 13:47:32;;;;;;;;;;;29.60;38.90;;;;;;4946103;29;20286;-96
2021/06/04 13:50:13;;;;;;;;;;;29.40;39.80;;;;;;4930737;29;19926;-96
2021/06/04 13:56:31;;;;;;;;;;;29.10;44.10;;;;;;5053214;23;19933;-92
2021/06/04 13:59:17;;;;;;;;;;;29.50;39.00;;;;;;4942946;29;19978;-92
2021/06/04 14:01:49;;;;;;;;;;;29.80;38.00;;;;;;4945067;29;20278;-94
2021/06/04 14:04:28;;;;;;;;;;;30.00;35.50;;;;;;4942185;29;19950;-94
2021/06/04 14:07:00;;;;;;;;;;;29.90;33.90;;;;;;4942528;29;19930;-93
2021/06/04 14:09:36;;;;;;;;;;;30.10;42.00;;;;;;4942504;29;19926;-94
2021/06/04 14:12:29;;;;;;;;;;;30.40;37.60;;;;;;4941414;29;19926;-93
2021/06/04 14:15:32;;;;;;;;;;;30.10;38.50;;;;;;4947444;29;19933;-94
2021/06/04 14:18:02;;;;;;;;;;;30.40;39.80;;;;;;4941602;29;19926;-94
2021/06/04 14:20:34;;;;;;;;;;;30.60;36.80;;;;;;4942357;29;19927;-95
2021/06/04 14:23:21;;;;;;;;;;;31.10;38.60;;;;;;4945590;29;19933;-93
2021/06/04 14:26:11;;;;;;;;;;;31.30;33.90;;;;;;4958765;29;19927;-94
2021/06/04 14:28:44;;;;;;;;;;;31.00;31.20;;;;;;5106981;23;19935;-95
2021/06/04 14:31:20;;;;;;;;;;;30.60;32.70;;;;;;4959687;28;19926;-95
2021/06/04 14:34:14;;;;;;;;;;;30.60;35.90;;;;;;4961414;28;19910;-95
2021/06/04 14:36:44;;;;;;;;;;;30.80;34.10;;;;;;5341037;23;19911;-94
2021/06/04 14:39:26;;;;;;;;;;;31.10;33.50;;;;;;4961615;29;19926;-93
2021/06/04 14:41:52;;;;;;;;;;;31.20;32.80;;;;;;4947499;29;19927;-92
2021/06/04 14:44:21;;;;;;;;;;;30.90;32.00;;;;;;4958050;29;20326;-93
2021/06/04 14:46:50;;;;;;;;;;;30.70;30.60;;;;;;4941102;29;20362;-92
2021/06/04 14:49:18;;;;;;;;;;;30.80;31.10;;;;;;4940647;29;19986;-92
2021/06/04 14:51:45;;;;;;;;;;;31.10;31.60;;;;;;4941500;29;19978;-92
2021/06/04 14:54:16;;;;;;;;;;;31.10;31.10;;;;;;4942080;29;19993;-95
2021/06/04 14:56:44;;;;;;;;;;;31.40;33.00;;;;;;4941342;29;19932;-93
2021/06/04 14:59:11;;;;;;;;;;;31.50;31.70;;;;;;4942584;29;19927;-94
2021/06/04 15:01:39;;;;;;;;;;;31.60;30.40;;;;;;4942863;29;19931;-92
2021/06/04 15:04:06;;;;;;;;;;;31.70;29.50;;;;;;4941324;29;19977;-93
2021/06/04 15:06:33;;;;;;;;;;;31.80;29.80;;;;;;4941715;29;19934;-93
2021/06/04 15:09:00;;;;;;;;;;;31.50;29.10;;;;;;4941379;29;19938;-94
2021/06/04 15:11:28;;;;;;;;;;;31.50;29.50;;;;;;4941403;29;20366;-93
2021/06/04 15:13:55;;;;;;;;;;;31.70;30.80;;;;;;4941395;29;19930;-94
2021/06/04 15:16:24;;;;;;;;;;;31.80;33.40;;;;;;4941085;29;19927;-94
2021/06/04 15:18:52;;;;;;;;;;;32.00;31.70;;;;;;4941349;29;20044;-94
2021/06/04 15:21:23;;;;;;;;;;;31.90;29.90;;;;;;4941722;29;19927;-95
2021/06/04 15:23:50;;;;;;;;;;;32.10;29.40;;;;;;4941274;29;19933;-94
2021/06/04 15:26:19;;;;;;;;;;;31.80;29.80;;;;;;4941304;29;19933;-94
2021/06/04 15:28:46;;;;;;;;;;;31.80;29.50;;;;;;4942192;29;19926;-92
2021/06/04 15:31:15;;;;;;;;;;;31.60;29.20;;;;;;4941072;29;19927;-93
2021/06/04 15:33:42;;;;;;;;;;;31.50;30.00;;;;;;4940823;29;19926;-93
2021/06/04 15:36:11;;;;;;;;;;;31.60;31.60;;;;;;4940981;28;19933;-92
2021/06/04 15:38:40;;;;;;;;;;;31.80;31.90;;;;;;4940806;29;20013;-95
2021/06/04 15:41:07;;;;;;;;;;;31.90;29.40;;;;;;4941019;29;19933;-92
2021/06/04 15:43:34;;;;;;;;;;;32.10;28.00;;;;;;4941354;29;19927;-93
2021/06/04 15:46:03;;;;;;;;;;;32.00;32.30;;;;;;4943795;29;19927;-93
2021/06/04 15:48:31;;;;;;;;;;;32.10;29.70;;;;;;4960945;28;20009;-94
2021/06/04 15:50:59;;;;;;;;;;;32.30;29.50;;;;;;4944214;29;19933;-93
2021/06/04 15:53:27;;;;;;;;;;;32.70;29.40;;;;;;4945134;29;19933;-93
2021/06/04 15:55:54;;;;;;;;;;;32.80;32.10;;;;;;4944086;29;19927;-96
2021/06/04 15:58:22;;;;;;;;;;;32.60;28.30;;;;;;4945001;29;19997;-95
2021/06/04 16:00:50;;;;;;;;;;;32.10;31.80;;;;;;4943980;29;19926;-94
2021/06/04 16:03:17;;;;;;;;;;;32.20;34.30;;;;;;4946478;29;19927;-93
2021/06/04 16:05:46;;;;;;;;;;;32.40;34.00;;;;;;4947557;29;19927;-95
2021/06/04 16:08:14;;;;;;;;;;;32.40;31.00;;;;;;4964889;29;19911;-95
2021/06/04 16:10:42;;;;;;;;;;;32.30;30.80;;;;;;4956889;28;19926;-93
2021/06/04 16:13:10;;;;;;;;;;;32.30;30.60;;;;;;4948588;29;19927;-93
2021/06/04 16:15:39;;;;;;;;;;;32.30;30.30;;;;;;4944456;29;19962;-94
2021/06/04 16:18:07;;;;;;;;;;;32.00;34.30;;;;;;4944027;29;19930;-95
2021/06/04 16:20:34;;;;;;;;;;;32.00;32.30;;;;;;4944156;29;20434;-93
2021/06/04 16:23:04;;;;;;;;;;;31.60;33.00;;;;;;4952537;28;19934;-93
2021/06/04 16:25:33;;;;;;;;;;;31.60;32.20;;;;;;4960921;29;20009;-93
2021/06/04 16:28:02;;;;;;;;;;;31.60;34.60;;;;;;4948049;29;19927;-95
2021/06/04 16:30:29;;;;;;;;;;;31.50;32.20;;;;;;4946327;29;19933;-94
2021/06/04 16:32:56;;;;;;;;;;;31.10;31.10;;;;;;4944612;29;19933;-92
2021/06/04 16:35:26;;;;;;;;;;;30.70;31.60;;;;;;4943858;29;19926;-94
2021/06/04 16:37:54;;;;;;;;;;;30.50;32.30;;;;;;4944513;29;19934;-93
2021/06/04 16:40:22;;;;;;;;;;;30.40;33.60;;;;;;4945394;29;20296;-93
2021/06/04 16:42:52;;;;;;;;;;;30.40;33.00;;;;;;4948006;29;19927;-94
2021/06/04 16:45:21;;;;;;;;;;;30.30;30.30;;;;;;4946915;29;19926;-93
2021/06/04 16:47:48;;;;;;;;;;;30.30;31.70;;;;;;4947638;29;19933;-94
2021/06/04 16:50:16;;;;;;;;;;;30.10;32.40;;;;;;4950473;29;19973;-93
2021/06/04 16:52:44;;;;;;;;;;;30.00;31.60;;;;;;4950000;29;19958;-94
2021/06/04 16:55:15;;;;;;;;;;;30.00;33.30;;;;;;4956911;29;19933;-95
2021/06/04 16:57:45;;;;;;;;;;;30.10;32.90;;;;;;4968544;28;19910;-90
2021/06/04 17:00:14;;;;;;;;;;;30.20;36.30;;;;;;5088728;23;19965;-93
2021/06/04 17:02:41;;;;;;;;;;;30.30;36.10;;;;;;4974056;28;19927;-94
2021/06/04 17:05:20;;;;;;;;;;;30.40;34.60;;;;;;4241271;23;20136;-88
2021/06/04 17:11:36;;;;;;;;;;;30.30;35.30;;;;;;4914283;29;19931;-96
2021/06/04 17:14:05;;;;;;;;;;;30.40;36.30;;;;;;4892094;29;19935;-96
2021/06/04 17:16:33;;;;;;;;;;;30.40;36.20;;;;;;4912225;29;20265;-96
2021/06/04 17:19:03;;;;;;;;;;;30.40;34.40;;;;;;4912308;29;20275;-92
2021/06/04 17:21:31;;;;;;;;;;;30.20;32.90;;;;;;4910224;29;19912;-94
2021/06/04 17:27:33;;;;;;;;;;;29.10;40.70;;;;;;4923512;29;19922;-93